sensor_id;sensor_type;location;lat;lon;timestamp;temperature;humidity
28175;SHT30;59417;44.788;10.334;2023-06-22T00:01:59;26.50;63.79
28175;SHT30;59417;44.788;10.334;2023-06-22T00:04:24;26.41;64.05
28175;SHT30;59417;44.788;10.334;2023-06-22T00:06:50;26.39;64.06
28175;SHT30;59417;44.788;10.334;2023-06-22T00:09:16;26.43;64.01
28175;SHT30;59417;44.788;10.334;2023-06-22T00:11:42;26.43;64.28
28175;SHT30;59417;44.788;10.334;2023-06-22T00:14:07;26.46;64.04
28175;SHT30;59417;44.788;10.334;2023-06-22T00:16:34;26.32;63.96
28175;SHT30;59417;44.788;10.334;2023-06-22T00:19:00;26.33;64.17
28175;SHT30;59417;44.788;10.334;2023-06-22T00:21:27;26.23;64.47
28175;SHT30;59417;44.788;10.334;2023-06-22T00:23:53;26.25;64.72
28175;SHT30;59417;44.788;10.334;2023-06-22T00:26:19;26.37;64.34
28175;SHT30;59417;44.788;10.334;2023-06-22T00:28:46;26.51;64.03
28175;SHT30;59417;44.788;10.334;2023-06-22T00:31:13;26.22;65.18
28175;SHT30;59417;44.788;10.334;2023-06-22T00:33:40;26.10;65.06
28175;SHT30;59417;44.788;10.334;2023-06-22T00:36:06;26.19;64.43
28175;SHT30;59417;44.788;10.334;2023-06-22T00:38:33;26.36;64.98
28175;SHT30;59417;44.788;10.334;2023-06-22T00:41:00;26.28;64.62
28175;SHT30;59417;44.788;10.334;2023-06-22T00:43:26;26.16;64.69
28175;SHT30;59417;44.788;10.334;2023-06-22T00:45:52;26.13;64.88
28175;SHT30;59417;44.788;10.334;2023-06-22T00:48:18;26.13;64.09
28175;SHT30;59417;44.788;10.334;2023-06-22T00:50:46;26.05;64.35
28175;SHT30;59417;44.788;10.334;2023-06-22T00:53:16;26.12;64.39
28175;SHT30;59417;44.788;10.334;2023-06-22T00:55:44;26.05;64.43
28175;SHT30;59417;44.788;10.334;2023-06-22T00:58:11;26.03;64.17
28175;SHT30;59417;44.788;10.334;2023-06-22T01:00:39;26.06;64.05
28175;SHT30;59417;44.788;10.334;2023-06-22T01:03:05;26.08;64.28
28175;SHT30;59417;44.788;10.334;2023-06-22T01:05:35;26.09;64.10
28175;SHT30;59417;44.788;10.334;2023-06-22T01:11:01;25.96;64.24
28175;SHT30;59417;44.788;10.334;2023-06-22T01:16:30;25.93;64.69
28175;SHT30;59417;44.788;10.334;2023-06-22T01:18:59;25.99;64.59
28175;SHT30;59417;44.788;10.334;2023-06-22T01:21:30;25.98;64.64
28175;SHT30;59417;44.788;10.334;2023-06-22T01:29:52;25.67;65.98
28175;SHT30;59417;44.788;10.334;2023-06-22T01:32:35;25.77;64.44
28175;SHT30;59417;44.788;10.334;2023-06-22T01:35:04;25.77;63.90
28175;SHT30;59417;44.788;10.334;2023-06-22T01:37:32;25.74;63.84
28175;SHT30;59417;44.788;10.334;2023-06-22T01:39:59;25.77;63.73
28175;SHT30;59417;44.788;10.334;2023-06-22T01:42:25;25.69;63.70
28175;SHT30;59417;44.788;10.334;2023-06-22T01:44:54;25.67;63.32
28175;SHT30;59417;44.788;10.334;2023-06-22T01:47:21;25.62;63.12
28175;SHT30;59417;44.788;10.334;2023-06-22T01:49:47;25.62;63.15
28175;SHT30;59417;44.788;10.334;2023-06-22T01:52:14;25.65;63.23
28175;SHT30;59417;44.788;10.334;2023-06-22T01:54:41;25.64;63.29
28175;SHT30;59417;44.788;10.334;2023-06-22T01:57:07;25.53;63.48
28175;SHT30;59417;44.788;10.334;2023-06-22T01:59:39;25.54;63.27
28175;SHT30;59417;44.788;10.334;2023-06-22T02:02:11;25.38;64.46
28175;SHT30;59417;44.788;10.334;2023-06-22T02:04:46;25.42;64.83
28175;SHT30;59417;44.788;10.334;2023-06-22T02:07:15;25.47;64.69
28175;SHT30;59417;44.788;10.334;2023-06-22T02:09:44;25.55;64.12
28175;SHT30;59417;44.788;10.334;2023-06-22T02:12:17;25.69;63.62
28175;SHT30;59417;44.788;10.334;2023-06-22T02:14:45;25.67;64.07
28175;SHT30;59417;44.788;10.334;2023-06-22T02:17:12;25.53;64.38
28175;SHT30;59417;44.788;10.334;2023-06-22T02:19:41;25.57;62.72
28175;SHT30;59417;44.788;10.334;2023-06-22T02:22:07;25.37;63.37
28175;SHT30;59417;44.788;10.334;2023-06-22T02:24:32;25.39;62.97
28175;SHT30;59417;44.788;10.334;2023-06-22T02:26:59;25.49;62.86
28175;SHT30;59417;44.788;10.334;2023-06-22T02:29:26;25.49;62.02
28175;SHT30;59417;44.788;10.334;2023-06-22T02:31:53;25.41;62.36
28175;SHT30;59417;44.788;10.334;2023-06-22T02:34:22;25.38;61.97
28175;SHT30;59417;44.788;10.334;2023-06-22T02:36:50;25.49;61.61
28175;SHT30;59417;44.788;10.334;2023-06-22T02:39:20;25.44;61.21
28175;SHT30;59417;44.788;10.334;2023-06-22T02:41:52;25.41;61.66
28175;SHT30;59417;44.788;10.334;2023-06-22T02:44:19;25.33;62.58
28175;SHT30;59417;44.788;10.334;2023-06-22T02:46:47;25.31;61.51
28175;SHT30;59417;44.788;10.334;2023-06-22T02:49:14;25.28;61.85
28175;SHT30;59417;44.788;10.334;2023-06-22T02:51:44;25.24;61.69
28175;SHT30;59417;44.788;10.334;2023-06-22T02:54:11;25.35;62.52
28175;SHT30;59417;44.788;10.334;2023-06-22T02:56:37;25.26;62.17
28175;SHT30;59417;44.788;10.334;2023-06-22T02:59:03;25.26;62.57
28175;SHT30;59417;44.788;10.334;2023-06-22T03:01:35;25.21;61.89
28175;SHT30;59417;44.788;10.334;2023-06-22T03:04:08;25.28;61.72
28175;SHT30;59417;44.788;10.334;2023-06-22T03:06:37;25.26;61.57
28175;SHT30;59417;44.788;10.334;2023-06-22T03:09:07;25.31;60.94
28175;SHT30;59417;44.788;10.334;2023-06-22T03:11:37;25.24;61.25
28175;SHT30;59417;44.788;10.334;2023-06-22T03:14:03;25.17;61.51
28175;SHT30;59417;44.788;10.334;2023-06-22T03:16:29;25.10;61.19
28175;SHT30;59417;44.788;10.334;2023-06-22T03:18:58;25.04;61.54
28175;SHT30;59417;44.788;10.334;2023-06-22T03:21:27;25.03;61.46
28175;SHT30;59417;44.788;10.334;2023-06-22T03:23:53;25.13;61.57
28175;SHT30;59417;44.788;10.334;2023-06-22T03:26:19;25.03;61.68
28175;SHT30;59417;44.788;10.334;2023-06-22T03:28:45;25.03;61.83
28175;SHT30;59417;44.788;10.334;2023-06-22T03:31:11;25.03;61.94
28175;SHT30;59417;44.788;10.334;2023-06-22T03:33:39;25.03;61.75
28175;SHT30;59417;44.788;10.334;2023-06-22T03:36:05;25.04;61.83
28175;SHT30;59417;44.788;10.334;2023-06-22T03:38:31;25.04;61.72
28175;SHT30;59417;44.788;10.334;2023-06-22T03:40:57;25.07;61.47
28175;SHT30;59417;44.788;10.334;2023-06-22T03:43:24;24.99;61.67
28175;SHT30;59417;44.788;10.334;2023-06-22T03:45:52;25.02;61.45
28175;SHT30;59417;44.788;10.334;2023-06-22T03:48:18;24.90;61.46
28175;SHT30;59417;44.788;10.334;2023-06-22T03:50:44;24.87;61.57
28175;SHT30;59417;44.788;10.334;2023-06-22T03:53:13;24.82;61.96
28175;SHT30;59417;44.788;10.334;2023-06-22T03:55:47;24.76;61.75
28175;SHT30;59417;44.788;10.334;2023-06-22T03:58:14;24.75;62.14
28175;SHT30;59417;44.788;10.334;2023-06-22T04:00:39;24.79;61.92
28175;SHT30;59417;44.788;10.334;2023-06-22T04:03:05;24.69;62.17
28175;SHT30;59417;44.788;10.334;2023-06-22T04:05:33;24.66;62.14
28175;SHT30;59417;44.788;10.334;2023-06-22T04:07:58;24.63;62.63
28175;SHT30;59417;44.788;10.334;2023-06-22T04:10:24;24.60;63.04
28175;SHT30;59417;44.788;10.334;2023-06-22T04:12:50;24.59;62.92
28175;SHT30;59417;44.788;10.334;2023-06-22T04:15:15;24.63;63.02
28175;SHT30;59417;44.788;10.334;2023-06-22T04:17:41;24.65;63.59
28175;SHT30;59417;44.788;10.334;2023-06-22T04:20:07;24.66;64.49
28175;SHT30;59417;44.788;10.334;2023-06-22T04:22:33;24.57;64.64
28175;SHT30;59417;44.788;10.334;2023-06-22T04:24:59;24.70;64.68
28175;SHT30;59417;44.788;10.334;2023-06-22T04:27:25;24.76;65.26
28175;SHT30;59417;44.788;10.334;2023-06-22T04:29:50;24.77;65.37
28175;SHT30;59417;44.788;10.334;2023-06-22T04:32:16;24.73;65.94
28175;SHT30;59417;44.788;10.334;2023-06-22T04:34:43;24.83;65.77
28175;SHT30;59417;44.788;10.334;2023-06-22T04:37:09;24.76;66.07
28175;SHT30;59417;44.788;10.334;2023-06-22T04:39:35;24.80;66.32
28175;SHT30;59417;44.788;10.334;2023-06-22T04:42:01;24.73;66.76
28175;SHT30;59417;44.788;10.334;2023-06-22T04:44:27;24.79;66.88
28175;SHT30;59417;44.788;10.334;2023-06-22T04:47:01;24.70;67.17
28175;SHT30;59417;44.788;10.334;2023-06-22T04:49:30;24.79;67.10
28175;SHT30;59417;44.788;10.334;2023-06-22T04:51:59;24.91;66.96
28175;SHT30;59417;44.788;10.334;2023-06-22T04:54:25;24.99;67.02
28175;SHT30;59417;44.788;10.334;2023-06-22T04:56:51;24.94;67.28
28175;SHT30;59417;44.788;10.334;2023-06-22T04:59:28;24.97;67.51
28175;SHT30;59417;44.788;10.334;2023-06-22T05:01:57;25.03;67.76
28175;SHT30;59417;44.788;10.334;2023-06-22T05:04:25;25.04;67.35
28175;SHT30;59417;44.788;10.334;2023-06-22T05:06:51;25.02;67.59
28175;SHT30;59417;44.788;10.334;2023-06-22T05:09:17;24.97;67.95
28175;SHT30;59417;44.788;10.334;2023-06-22T05:11:44;25.06;67.48
28175;SHT30;59417;44.788;10.334;2023-06-22T05:14:10;25.03;67.77
28175;SHT30;59417;44.788;10.334;2023-06-22T05:16:36;25.14;67.24
28175;SHT30;59417;44.788;10.334;2023-06-22T05:19:02;25.16;67.43
28175;SHT30;59417;44.788;10.334;2023-06-22T05:21:30;25.35;67.56
28175;SHT30;59417;44.788;10.334;2023-06-22T05:23:56;25.34;67.38
28175;SHT30;59417;44.788;10.334;2023-06-22T05:26:26;25.33;67.60
28175;SHT30;59417;44.788;10.334;2023-06-22T05:28:53;25.38;67.84
28175;SHT30;59417;44.788;10.334;2023-06-22T05:31:19;25.48;67.69
28175;SHT30;59417;44.788;10.334;2023-06-22T05:33:46;25.48;67.53
28175;SHT30;59417;44.788;10.334;2023-06-22T05:36:12;25.38;67.73
28175;SHT30;59417;44.788;10.334;2023-06-22T05:38:39;25.47;67.92
28175;SHT30;59417;44.788;10.334;2023-06-22T05:41:05;25.48;68.28
28175;SHT30;59417;44.788;10.334;2023-06-22T05:43:31;25.49;67.76
28175;SHT30;59417;44.788;10.334;2023-06-22T05:45:58;25.45;68.12
28175;SHT30;59417;44.788;10.334;2023-06-22T05:48:24;25.42;67.96
28175;SHT30;59417;44.788;10.334;2023-06-22T05:50:50;25.47;68.08
28175;SHT30;59417;44.788;10.334;2023-06-22T05:53:15;25.45;68.51
28175;SHT30;59417;44.788;10.334;2023-06-22T05:55:41;25.47;67.46
28175;SHT30;59417;44.788;10.334;2023-06-22T05:58:08;25.57;68.07
28175;SHT30;59417;44.788;10.334;2023-06-22T06:00:35;25.55;68.96
28175;SHT30;59417;44.788;10.334;2023-06-22T06:03:01;25.49;69.75
28175;SHT30;59417;44.788;10.334;2023-06-22T06:05:31;25.57;69.92
28175;SHT30;59417;44.788;10.334;2023-06-22T06:07:56;25.58;69.98
28175;SHT30;59417;44.788;10.334;2023-06-22T06:10:22;25.68;69.48
28175;SHT30;59417;44.788;10.334;2023-06-22T06:12:48;25.71;69.40
28175;SHT30;59417;44.788;10.334;2023-06-22T06:15:13;25.82;69.08
28175;SHT30;59417;44.788;10.334;2023-06-22T06:17:47;25.84;68.80
28175;SHT30;59417;44.788;10.334;2023-06-22T06:20:14;25.78;69.20
28175;SHT30;59417;44.788;10.334;2023-06-22T06:22:40;25.88;68.85
28175;SHT30;59417;44.788;10.334;2023-06-22T06:25:05;25.93;69.26
28175;SHT30;59417;44.788;10.334;2023-06-22T06:27:32;26.03;68.58
28175;SHT30;59417;44.788;10.334;2023-06-22T06:29:58;26.03;68.44
28175;SHT30;59417;44.788;10.334;2023-06-22T06:32:24;26.22;67.57
28175;SHT30;59417;44.788;10.334;2023-06-22T06:34:49;26.32;64.94
28175;SHT30;59417;44.788;10.334;2023-06-22T06:37:16;26.33;64.44
28175;SHT30;59417;44.788;10.334;2023-06-22T06:39:42;26.46;65.37
28175;SHT30;59417;44.788;10.334;2023-06-22T06:42:08;26.53;66.08
28175;SHT30;59417;44.788;10.334;2023-06-22T06:44:34;26.47;66.89
28175;SHT30;59417;44.788;10.334;2023-06-22T06:47:03;26.49;65.85
28175;SHT30;59417;44.788;10.334;2023-06-22T06:49:29;26.57;64.12
28175;SHT30;59417;44.788;10.334;2023-06-22T06:51:54;26.56;63.96
28175;SHT30;59417;44.788;10.334;2023-06-22T06:54:21;26.63;59.46
28175;SHT30;59417;44.788;10.334;2023-06-22T06:56:47;26.71;59.26
28175;SHT30;59417;44.788;10.334;2023-06-22T06:59:14;26.71;59.05
28175;SHT30;59417;44.788;10.334;2023-06-22T07:01:41;26.83;61.62
28175;SHT30;59417;44.788;10.334;2023-06-22T07:04:10;26.97;59.07
28175;SHT30;59417;44.788;10.334;2023-06-22T07:06:36;27.10;57.70
28175;SHT30;59417;44.788;10.334;2023-06-22T07:09:03;27.29;57.21
28175;SHT30;59417;44.788;10.334;2023-06-22T07:11:29;27.16;58.32
28175;SHT30;59417;44.788;10.334;2023-06-22T07:13:54;27.29;60.28
28175;SHT30;59417;44.788;10.334;2023-06-22T07:16:20;27.34;59.09
28175;SHT30;59417;44.788;10.334;2023-06-22T07:18:46;27.41;61.27
28175;SHT30;59417;44.788;10.334;2023-06-22T07:21:12;27.45;57.86
28175;SHT30;59417;44.788;10.334;2023-06-22T07:23:37;27.49;56.80
28175;SHT30;59417;44.788;10.334;2023-06-22T07:26:03;27.51;55.76
28175;SHT30;59417;44.788;10.334;2023-06-22T07:28:31;27.59;56.01
28175;SHT30;59417;44.788;10.334;2023-06-22T07:31:02;27.69;54.72
28175;SHT30;59417;44.788;10.334;2023-06-22T07:33:29;27.67;55.93
28175;SHT30;59417;44.788;10.334;2023-06-22T07:35:55;27.73;57.92
28175;SHT30;59417;44.788;10.334;2023-06-22T07:38:20;27.70;55.79
28175;SHT30;59417;44.788;10.334;2023-06-22T07:40:47;27.75;56.27
28175;SHT30;59417;44.788;10.334;2023-06-22T07:43:13;27.69;56.17
28175;SHT30;59417;44.788;10.334;2023-06-22T07:45:39;27.69;56.09
28175;SHT30;59417;44.788;10.334;2023-06-22T07:48:07;27.79;54.56
28175;SHT30;59417;44.788;10.334;2023-06-22T07:50:33;27.80;52.66
28175;SHT30;59417;44.788;10.334;2023-06-22T07:52:58;27.85;52.97
28175;SHT30;59417;44.788;10.334;2023-06-22T07:55:24;27.97;51.98
28175;SHT30;59417;44.788;10.334;2023-06-22T07:57:50;27.99;53.37
28175;SHT30;59417;44.788;10.334;2023-06-22T08:00:17;28.03;52.60
28175;SHT30;59417;44.788;10.334;2023-06-22T08:02:45;28.12;53.06
28175;SHT30;59417;44.788;10.334;2023-06-22T08:05:13;28.17;51.79
28175;SHT30;59417;44.788;10.334;2023-06-22T08:07:39;28.20;51.31
28175;SHT30;59417;44.788;10.334;2023-06-22T08:10:11;28.26;52.44
28175;SHT30;59417;44.788;10.334;2023-06-22T08:12:37;28.28;53.91
28175;SHT30;59417;44.788;10.334;2023-06-22T08:15:03;28.43;52.52
28175;SHT30;59417;44.788;10.334;2023-06-22T08:17:29;28.43;52.40
28175;SHT30;59417;44.788;10.334;2023-06-22T08:19:56;28.49;52.55
28175;SHT30;59417;44.788;10.334;2023-06-22T08:22:22;28.58;52.73
28175;SHT30;59417;44.788;10.334;2023-06-22T08:24:47;28.60;54.38
28175;SHT30;59417;44.788;10.334;2023-06-22T08:27:13;28.67;53.92
28175;SHT30;59417;44.788;10.334;2023-06-22T08:29:40;28.74;54.42
28175;SHT30;59417;44.788;10.334;2023-06-22T08:32:11;28.84;52.80
28175;SHT30;59417;44.788;10.334;2023-06-22T08:34:37;28.81;53.72
28175;SHT30;59417;44.788;10.334;2023-06-22T08:37:08;28.87;54.46
28175;SHT30;59417;44.788;10.334;2023-06-22T08:39:34;28.88;54.59
28175;SHT30;59417;44.788;10.334;2023-06-22T08:42:00;29.13;54.37
28175;SHT30;59417;44.788;10.334;2023-06-22T08:44:25;29.12;53.24
28175;SHT30;59417;44.788;10.334;2023-06-22T08:46:51;28.99;53.22
28175;SHT30;59417;44.788;10.334;2023-06-22T08:49:17;28.99;53.63
28175;SHT30;59417;44.788;10.334;2023-06-22T08:51:42;28.95;54.14
28175;SHT30;59417;44.788;10.334;2023-06-22T08:54:11;28.98;53.87
28175;SHT30;59417;44.788;10.334;2023-06-22T08:56:36;28.99;54.50
28175;SHT30;59417;44.788;10.334;2023-06-22T08:59:02;29.03;52.47
28175;SHT30;59417;44.788;10.334;2023-06-22T09:01:28;29.09;53.21
28175;SHT30;59417;44.788;10.334;2023-06-22T09:03:53;29.08;54.42
28175;SHT30;59417;44.788;10.334;2023-06-22T09:06:23;29.23;53.08
28175;SHT30;59417;44.788;10.334;2023-06-22T09:08:52;29.26;53.51
28175;SHT30;59417;44.788;10.334;2023-06-22T09:11:18;29.39;53.14
28175;SHT30;59417;44.788;10.334;2023-06-22T09:13:44;29.43;52.87
28175;SHT30;59417;44.788;10.334;2023-06-22T09:16:10;29.47;53.08
28175;SHT30;59417;44.788;10.334;2023-06-22T09:18:37;29.56;54.10
28175;SHT30;59417;44.788;10.334;2023-06-22T09:21:03;29.63;52.68
28175;SHT30;59417;44.788;10.334;2023-06-22T09:23:31;29.74;52.92
28175;SHT30;59417;44.788;10.334;2023-06-22T09:25:56;29.81;52.43
28175;SHT30;59417;44.788;10.334;2023-06-22T09:28:22;29.94;50.53
28175;SHT30;59417;44.788;10.334;2023-06-22T09:30:48;30.03;48.70
28175;SHT30;59417;44.788;10.334;2023-06-22T09:33:13;29.96;49.35
28175;SHT30;59417;44.788;10.334;2023-06-22T09:35:39;30.00;49.75
28175;SHT30;59417;44.788;10.334;2023-06-22T09:38:05;29.94;49.71
28175;SHT30;59417;44.788;10.334;2023-06-22T09:40:30;30.00;50.59
28175;SHT30;59417;44.788;10.334;2023-06-22T09:42:58;30.07;49.12
28175;SHT30;59417;44.788;10.334;2023-06-22T09:45:23;30.05;50.71
28175;SHT30;59417;44.788;10.334;2023-06-22T09:47:49;30.11;51.73
28175;SHT30;59417;44.788;10.334;2023-06-22T09:50:14;30.24;48.85
28175;SHT30;59417;44.788;10.334;2023-06-22T09:52:41;30.29;50.00
28175;SHT30;59417;44.788;10.334;2023-06-22T09:55:10;30.38;48.24
28175;SHT30;59417;44.788;10.334;2023-06-22T09:57:35;30.44;46.86
28175;SHT30;59417;44.788;10.334;2023-06-22T10:00:01;30.45;47.49
28175;SHT30;59417;44.788;10.334;2023-06-22T10:02:29;30.41;49.09
28175;SHT30;59417;44.788;10.334;2023-06-22T10:04:55;30.47;50.00
28175;SHT30;59417;44.788;10.334;2023-06-22T10:07:21;30.63;48.17
28175;SHT30;59417;44.788;10.334;2023-06-22T10:09:47;30.71;48.30
28175;SHT30;59417;44.788;10.334;2023-06-22T10:12:12;30.75;48.76
28175;SHT30;59417;44.788;10.334;2023-06-22T10:14:38;30.86;47.83
28175;SHT30;59417;44.788;10.334;2023-06-22T10:17:04;30.93;49.43
28175;SHT30;59417;44.788;10.334;2023-06-22T10:19:32;30.99;48.40
28175;SHT30;59417;44.788;10.334;2023-06-22T10:21:58;31.13;47.07
28175;SHT30;59417;44.788;10.334;2023-06-22T10:24:23;31.07;47.02
28175;SHT30;59417;44.788;10.334;2023-06-22T10:26:49;31.07;47.43
28175;SHT30;59417;44.788;10.334;2023-06-22T10:29:15;31.15;48.58
28175;SHT30;59417;44.788;10.334;2023-06-22T10:31:41;31.27;47.67
28175;SHT30;59417;44.788;10.334;2023-06-22T10:34:07;31.34;48.30
28175;SHT30;59417;44.788;10.334;2023-06-22T10:36:32;31.33;49.02
28175;SHT30;59417;44.788;10.334;2023-06-22T10:38:58;31.31;48.60
28175;SHT30;59417;44.788;10.334;2023-06-22T10:41:24;31.27;48.82
28175;SHT30;59417;44.788;10.334;2023-06-22T10:43:50;31.33;47.54
28175;SHT30;59417;44.788;10.334;2023-06-22T10:46:16;31.37;46.52
28175;SHT30;59417;44.788;10.334;2023-06-22T10:48:44;31.48;47.83
28175;SHT30;59417;44.788;10.334;2023-06-22T10:51:10;31.51;48.82
28175;SHT30;59417;44.788;10.334;2023-06-22T10:53:36;31.58;46.65
28175;SHT30;59417;44.788;10.334;2023-06-22T10:56:01;31.50;45.47
28175;SHT30;59417;44.788;10.334;2023-06-22T10:58:27;31.44;46.20
28175;SHT30;59417;44.788;10.334;2023-06-22T11:00:53;31.56;46.30
28175;SHT30;59417;44.788;10.334;2023-06-22T11:03:18;31.60;46.57
28175;SHT30;59417;44.788;10.334;2023-06-22T11:05:44;31.68;48.94
28175;SHT30;59417;44.788;10.334;2023-06-22T11:08:11;31.80;48.72
28175;SHT30;59417;44.788;10.334;2023-06-22T11:10:37;31.97;48.93
28175;SHT30;59417;44.788;10.334;2023-06-22T11:13:02;32.14;49.10
28175;SHT30;59417;44.788;10.334;2023-06-22T11:15:29;32.33;48.62
28175;SHT30;59417;44.788;10.334;2023-06-22T11:17:59;32.45;46.93
28175;SHT30;59417;44.788;10.334;2023-06-22T11:20:25;32.49;46.27
28175;SHT30;59417;44.788;10.334;2023-06-22T11:22:51;32.55;45.97
28175;SHT30;59417;44.788;10.334;2023-06-22T11:25:17;32.59;45.98
28175;SHT30;59417;44.788;10.334;2023-06-22T11:27:43;32.60;45.40
28175;SHT30;59417;44.788;10.334;2023-06-22T11:30:09;32.58;45.33
28175;SHT30;59417;44.788;10.334;2023-06-22T11:32:35;32.66;45.05
28175;SHT30;59417;44.788;10.334;2023-06-22T11:35:01;32.72;45.93
28175;SHT30;59417;44.788;10.334;2023-06-22T11:37:26;32.73;46.95
28175;SHT30;59417;44.788;10.334;2023-06-22T11:39:52;32.79;47.43
28175;SHT30;59417;44.788;10.334;2023-06-22T11:42:20;32.91;48.31
28175;SHT30;59417;44.788;10.334;2023-06-22T11:44:46;33.00;46.96
28175;SHT30;59417;44.788;10.334;2023-06-22T11:47:11;33.04;46.68
28175;SHT30;59417;44.788;10.334;2023-06-22T11:49:37;33.16;46.87
28175;SHT30;59417;44.788;10.334;2023-06-22T11:52:03;33.23;44.99
28175;SHT30;59417;44.788;10.334;2023-06-22T11:54:28;33.23;43.95
28175;SHT30;59417;44.788;10.334;2023-06-22T11:56:54;33.21;45.31
28175;SHT30;59417;44.788;10.334;2023-06-22T11:59:20;33.29;47.83
28175;SHT30;59417;44.788;10.334;2023-06-22T12:01:47;33.40;46.61
28175;SHT30;59417;44.788;10.334;2023-06-22T12:04:14;33.44;44.66
28175;SHT30;59417;44.788;10.334;2023-06-22T12:06:42;33.49;44.03
28175;SHT30;59417;44.788;10.334;2023-06-22T12:09:09;33.40;44.10
28175;SHT30;59417;44.788;10.334;2023-06-22T12:11:35;33.53;45.15
28175;SHT30;59417;44.788;10.334;2023-06-22T12:14:01;33.62;45.35
28175;SHT30;59417;44.788;10.334;2023-06-22T12:16:28;33.68;45.20
28175;SHT30;59417;44.788;10.334;2023-06-22T12:18:54;33.77;44.92
28175;SHT30;59417;44.788;10.334;2023-06-22T12:21:20;33.85;44.63
28175;SHT30;59417;44.788;10.334;2023-06-22T12:23:45;33.92;44.65
28175;SHT30;59417;44.788;10.334;2023-06-22T12:26:11;34.00;45.07
28175;SHT30;59417;44.788;10.334;2023-06-22T12:28:37;33.97;45.70
28175;SHT30;59417;44.788;10.334;2023-06-22T12:31:02;33.88;44.46
28175;SHT30;59417;44.788;10.334;2023-06-22T12:33:28;33.80;44.65
28175;SHT30;59417;44.788;10.334;2023-06-22T12:35:56;33.72;45.01
28175;SHT30;59417;44.788;10.334;2023-06-22T12:38:22;33.49;44.67
28175;SHT30;59417;44.788;10.334;2023-06-22T12:40:50;33.27;45.50
28175;SHT30;59417;44.788;10.334;2023-06-22T12:43:15;33.14;44.90
28175;SHT30;59417;44.788;10.334;2023-06-22T12:45:41;33.14;45.59
28175;SHT30;59417;44.788;10.334;2023-06-22T12:48:07;33.19;45.26
28175;SHT30;59417;44.788;10.334;2023-06-22T12:50:34;33.31;45.31
28175;SHT30;59417;44.788;10.334;2023-06-22T12:53:00;33.50;45.82
28175;SHT30;59417;44.788;10.334;2023-06-22T12:55:27;33.62;46.08
28175;SHT30;59417;44.788;10.334;2023-06-22T12:57:56;33.77;45.56
28175;SHT30;59417;44.788;10.334;2023-06-22T13:00:21;33.81;43.77
28175;SHT30;59417;44.788;10.334;2023-06-22T13:02:47;33.77;44.29
28175;SHT30;59417;44.788;10.334;2023-06-22T13:05:13;33.67;45.29
28175;SHT30;59417;44.788;10.334;2023-06-22T13:07:38;33.54;45.32
28175;SHT30;59417;44.788;10.334;2023-06-22T13:10:04;33.44;44.34
28175;SHT30;59417;44.788;10.334;2023-06-22T13:12:30;33.35;44.74
28175;SHT30;59417;44.788;10.334;2023-06-22T13:14:56;33.23;45.27
28175;SHT30;59417;44.788;10.334;2023-06-22T13:17:21;32.97;45.10
28175;SHT30;59417;44.788;10.334;2023-06-22T13:19:47;33.03;44.50
28175;SHT30;59417;44.788;10.334;2023-06-22T13:22:34;33.21;45.10
28175;SHT30;59417;44.788;10.334;2023-06-22T13:25:06;33.17;46.09
28175;SHT30;59417;44.788;10.334;2023-06-22T13:27:32;33.04;46.19
28175;SHT30;59417;44.788;10.334;2023-06-22T13:29:58;32.89;46.14
28175;SHT30;59417;44.788;10.334;2023-06-22T13:32:23;32.72;46.20
28175;SHT30;59417;44.788;10.334;2023-06-22T13:34:52;32.76;46.42
28175;SHT30;59417;44.788;10.334;2023-06-22T13:37:18;32.68;49.87
28175;SHT30;59417;44.788;10.334;2023-06-22T13:39:43;32.48;48.59
28175;SHT30;59417;44.788;10.334;2023-06-22T13:42:09;32.42;49.55
28175;SHT30;59417;44.788;10.334;2023-06-22T13:44:35;32.38;50.88
28175;SHT30;59417;44.788;10.334;2023-06-22T13:47:01;32.36;49.83
28175;SHT30;59417;44.788;10.334;2023-06-22T13:49:27;32.38;49.26
28175;SHT30;59417;44.788;10.334;2023-06-22T13:51:53;32.25;50.66
28175;SHT30;59417;44.788;10.334;2023-06-22T13:54:18;32.15;49.75
28175;SHT30;59417;44.788;10.334;2023-06-22T13:56:44;32.02;49.61
28175;SHT30;59417;44.788;10.334;2023-06-22T13:59:10;31.97;49.42
28175;SHT30;59417;44.788;10.334;2023-06-22T14:01:36;31.91;49.84
28175;SHT30;59417;44.788;10.334;2023-06-22T14:04:04;31.89;49.46
28175;SHT30;59417;44.788;10.334;2023-06-22T14:06:30;31.89;49.44
28175;SHT30;59417;44.788;10.334;2023-06-22T14:08:56;31.89;49.89
28175;SHT30;59417;44.788;10.334;2023-06-22T14:11:25;31.97;51.75
28175;SHT30;59417;44.788;10.334;2023-06-22T14:13:51;31.99;52.48
28175;SHT30;59417;44.788;10.334;2023-06-22T14:16:17;32.04;52.52
28175;SHT30;59417;44.788;10.334;2023-06-22T14:18:44;32.04;52.00
28175;SHT30;59417;44.788;10.334;2023-06-22T14:21:10;32.09;51.39
28175;SHT30;59417;44.788;10.334;2023-06-22T14:23:35;32.17;51.49
28175;SHT30;59417;44.788;10.334;2023-06-22T14:26:02;32.24;50.17
28175;SHT30;59417;44.788;10.334;2023-06-22T14:28:28;32.24;49.71
28175;SHT30;59417;44.788;10.334;2023-06-22T14:30:54;32.24;50.17
28175;SHT30;59417;44.788;10.334;2023-06-22T14:33:20;32.18;51.43
28175;SHT30;59417;44.788;10.334;2023-06-22T14:35:46;32.12;50.83
28175;SHT30;59417;44.788;10.334;2023-06-22T14:38:12;32.09;52.08
28175;SHT30;59417;44.788;10.334;2023-06-22T14:40:38;32.29;50.24
28175;SHT30;59417;44.788;10.334;2023-06-22T14:43:04;32.18;51.01
28175;SHT30;59417;44.788;10.334;2023-06-22T14:45:30;32.02;52.66
28175;SHT30;59417;44.788;10.334;2023-06-22T14:47:55;31.91;54.08
28175;SHT30;59417;44.788;10.334;2023-06-22T14:50:21;31.81;52.85
28175;SHT30;59417;44.788;10.334;2023-06-22T14:52:47;31.81;50.70
28175;SHT30;59417;44.788;10.334;2023-06-22T14:55:13;31.80;50.43
28175;SHT30;59417;44.788;10.334;2023-06-22T14:57:41;31.80;50.33
28175;SHT30;59417;44.788;10.334;2023-06-22T15:00:09;31.81;50.72
28175;SHT30;59417;44.788;10.334;2023-06-22T15:02:35;31.78;51.19
28175;SHT30;59417;44.788;10.334;2023-06-22T15:05:01;31.80;50.90
28175;SHT30;59417;44.788;10.334;2023-06-22T15:07:27;31.89;50.88
28175;SHT30;59417;44.788;10.334;2023-06-22T15:09:52;31.95;52.31
28175;SHT30;59417;44.788;10.334;2023-06-22T15:12:18;31.91;51.78
28175;SHT30;59417;44.788;10.334;2023-06-22T15:14:44;31.89;54.17
28175;SHT30;59417;44.788;10.334;2023-06-22T15:17:10;31.85;52.85
28175;SHT30;59417;44.788;10.334;2023-06-22T15:19:36;31.88;53.24
28175;SHT30;59417;44.788;10.334;2023-06-22T15:22:06;31.89;54.36
28175;SHT30;59417;44.788;10.334;2023-06-22T15:24:33;31.85;53.45